createdAt,value
2023-03-07T00:00:22.081Z,62.90
2023-03-07T00:01:55.090Z,62.90
2023-03-07T00:03:28.486Z,62.90
2023-03-07T00:05:01.736Z,62.90
2023-03-07T00:06:35.178Z,62.90
2023-03-07T00:08:08.321Z,62.90
2023-03-07T00:09:42.918Z,63.00
2023-03-07T00:11:15.483Z,63.00
2023-03-07T00:12:48.571Z,63.00
2023-03-07T00:14:21.906Z,63.10
2023-03-07T00:15:55.079Z,63.00
2023-03-07T00:17:28.297Z,63.10
2023-03-07T00:19:01.833Z,63.20
2023-03-07T00:20:34.215Z,63.20
2023-03-07T00:22:07.328Z,63.20
2023-03-07T00:23:42.980Z,63.20
2023-03-07T00:25:18.871Z,63.10
2023-03-07T00:26:51.930Z,63.10
2023-03-07T00:28:24.292Z,63.00
2023-03-07T00:29:57.600Z,63.00
2023-03-07T00:31:30.956Z,63.10
2023-03-07T00:33:04.156Z,63.10
2023-03-07T00:34:37.372Z,63.20
2023-03-07T00:36:14.415Z,63.20
2023-03-07T00:37:46.591Z,63.30
2023-03-07T00:39:19.720Z,63.20
2023-03-07T00:41:06.922Z,63.10
2023-03-07T00:42:39.110Z,63.20
2023-03-07T00:44:12.187Z,63.10
2023-03-07T00:45:44.353Z,63.10
2023-03-07T00:47:17.594Z,63.10
2023-03-07T00:48:50.888Z,63.10
2023-03-07T00:50:24.046Z,63.20
2023-03-07T00:51:57.292Z,63.20
2023-03-07T00:53:31.067Z,63.10
2023-03-07T00:55:03.869Z,63.20
2023-03-07T00:56:38.448Z,63.20
2023-03-07T00:58:10.872Z,63.40
2023-03-07T00:59:44.093Z,63.40
2023-03-07T01:01:21.546Z,63.50
2023-03-07T01:02:57.007Z,63.60
2023-03-07T01:04:30.445Z,63.60
2023-03-07T01:06:05.782Z,63.60
2023-03-07T01:07:38.255Z,63.80
2023-03-07T01:09:12.302Z,63.70
2023-03-07T01:10:46.207Z,63.90
2023-03-07T01:12:20.798Z,64.00
2023-03-07T01:13:56.942Z,63.90
2023-03-07T01:15:29.236Z,63.90
2023-03-07T01:17:03.866Z,63.90
2023-03-07T01:18:37.306Z,63.90
2023-03-07T01:20:12.835Z,63.80
2023-03-07T01:21:46.929Z,64.70
2023-03-07T01:23:20.060Z,63.90
2023-03-07T01:24:53.401Z,63.90
2023-03-07T01:26:29.531Z,63.90
2023-03-07T01:28:04.674Z,64.00
2023-03-07T01:29:38.042Z,64.00
2023-03-07T01:31:12.454Z,63.90
2023-03-07T01:32:49.018Z,64.00
2023-03-07T01:34:23.292Z,63.90
2023-03-07T01:35:58.167Z,63.90
2023-03-07T01:37:31.502Z,64.00
2023-03-07T01:39:07.876Z,63.90
2023-03-07T01:40:42.589Z,64.10
2023-03-07T01:42:16.061Z,64.00
2023-03-07T01:43:50.412Z,63.90
2023-03-07T01:46:24.993Z,64.10
2023-03-07T01:48:00.728Z,64.00
2023-03-07T01:49:39.605Z,64.00
2023-03-07T01:51:12.287Z,64.10
2023-03-07T01:52:49.978Z,64.10
2023-03-07T01:54:25.414Z,64.60
2023-03-07T01:55:59.389Z,64.30
2023-03-07T01:57:37.901Z,64.40
2023-03-07T01:59:13.138Z,64.50
2023-03-07T02:00:47.250Z,64.70
2023-03-07T02:02:23.087Z,64.80
2023-03-07T02:04:02.841Z,65.00
2023-03-07T02:05:39.031Z,65.10
2023-03-07T02:07:14.539Z,65.10
2023-03-07T02:08:50.651Z,65.10
2023-03-07T02:10:25.703Z,65.10
2023-03-07T02:12:02.965Z,65.30
2023-03-07T02:13:37.490Z,65.40
2023-03-07T02:15:15.860Z,65.60
2023-03-07T02:16:49.955Z,65.70
2023-03-07T02:18:29.530Z,65.80
2023-03-07T02:20:21.889Z,65.90
2023-03-07T02:22:08.832Z,65.90
2023-03-07T02:23:53.706Z,66.00
2023-03-07T02:25:37.769Z,66.10
2023-03-07T02:27:12.531Z,66.10
2023-03-07T02:28:48.853Z,66.00
2023-03-07T02:30:22.017Z,66.00
2023-03-07T02:31:57.800Z,66.00
2023-03-07T02:33:31.540Z,66.10
2023-03-07T02:35:17.304Z,66.00
2023-03-07T02:36:59.614Z,66.30
2023-03-07T02:38:39.897Z,66.20
2023-03-07T02:40:17.476Z,66.20
2023-03-07T02:41:55.025Z,66.20
2023-03-07T02:43:37.489Z,66.30
2023-03-07T02:45:15.290Z,66.30
2023-03-07T02:46:48.540Z,66.20
2023-03-07T02:48:22.197Z,66.30
2023-03-07T02:49:56.080Z,66.30
2023-03-07T02:51:29.234Z,66.20
2023-03-07T02:53:02.594Z,66.20
2023-03-07T02:54:35.795Z,66.10
2023-03-07T02:56:09.225Z,66.10
2023-03-07T02:57:42.378Z,66.10
2023-03-07T02:59:16.006Z,66.20
2023-03-07T03:00:49.437Z,66.10
2023-03-07T03:02:23.429Z,66.10
2023-03-07T03:03:57.118Z,66.10
2023-03-07T03:05:30.652Z,66.10
2023-03-07T03:07:03.842Z,65.90
2023-03-07T03:08:36.125Z,65.80
2023-03-07T03:10:10.845Z,65.80
2023-03-07T03:11:44.070Z,65.60
2023-03-07T03:13:18.122Z,65.50
2023-03-07T03:14:52.577Z,65.70
2023-03-07T03:16:25.892Z,65.50
2023-03-07T03:17:58.719Z,65.60
2023-03-07T03:19:31.882Z,65.50
2023-03-07T03:21:09.162Z,66.40
2023-03-07T03:22:42.976Z,65.50
2023-03-07T03:24:17.414Z,65.60
2023-03-07T03:26:00.088Z,65.50
2023-03-07T03:27:35.653Z,65.50
2023-03-07T03:29:09.934Z,65.40
2023-03-07T03:30:44.356Z,65.30
2023-03-07T03:32:17.761Z,65.30
2023-03-07T03:33:54.550Z,65.30
2023-03-07T03:35:27.843Z,65.40
2023-03-07T03:37:03.812Z,65.30
2023-03-07T03:38:37.917Z,65.20
2023-03-07T03:40:17.117Z,65.20
2023-03-07T03:41:51.225Z,65.10
2023-03-07T03:43:26.336Z,65.00
2023-03-07T03:44:59.476Z,65.00
2023-03-07T03:46:33.999Z,65.10
2023-03-07T03:48:08.350Z,65.10
2023-03-07T03:49:41.392Z,65.00
2023-03-07T03:51:16.370Z,65.00
2023-03-07T03:52:50.568Z,65.10
2023-03-07T03:54:23.918Z,65.00
2023-03-07T03:56:07.010Z,65.00
2023-03-07T03:57:41.116Z,65.10
2023-03-07T03:59:15.170Z,64.90
2023-03-07T04:00:48.506Z,64.90
2023-03-07T04:02:23.264Z,64.70
2023-03-07T04:03:58.453Z,64.80
2023-03-07T04:05:34.823Z,64.80
2023-03-07T04:07:08.579Z,64.70
2023-03-07T04:08:42.659Z,64.80
2023-03-07T04:10:15.396Z,64.80
2023-03-07T04:11:48.517Z,64.80
2023-03-07T04:13:20.820Z,64.70
2023-03-07T04:14:53.971Z,64.70
2023-03-07T04:16:27.088Z,64.70
2023-03-07T04:18:02.546Z,64.80
2023-03-07T04:19:35.904Z,64.80
2023-03-07T04:21:11.157Z,64.80
2023-03-07T04:22:45.072Z,64.80
2023-03-07T04:24:17.341Z,64.80
2023-03-07T04:25:52.681Z,64.70
2023-03-07T04:27:26.003Z,64.80
2023-03-07T04:28:59.480Z,64.70
2023-03-07T04:30:39.809Z,64.80
2023-03-07T04:32:13.093Z,64.80
2023-03-07T04:33:48.818Z,64.70
2023-03-07T04:35:21.438Z,64.80
2023-03-07T04:36:54.901Z,64.80
2023-03-07T04:38:28.013Z,64.70
2023-03-07T04:40:01.379Z,64.80
2023-03-07T04:41:34.598Z,64.80
2023-03-07T04:43:14.905Z,64.90
2023-03-07T04:44:47.946Z,65.00
2023-03-07T04:46:21.568Z,65.10
2023-03-07T04:47:54.740Z,66.00
2023-03-07T04:49:29.538Z,65.10
2023-03-07T04:51:01.876Z,65.00
2023-03-07T04:52:35.241Z,65.10
2023-03-07T04:54:08.363Z,65.10
2023-03-07T04:55:42.190Z,65.00
2023-03-07T04:57:15.325Z,65.30
2023-03-07T04:58:48.891Z,65.10
2023-03-07T05:00:23.720Z,65.10
2023-03-07T05:01:57.288Z,65.20
2023-03-07T05:03:30.133Z,65.20
2023-03-07T05:05:06.845Z,65.30
2023-03-07T05:06:41.068Z,65.30
2023-03-07T05:08:15.311Z,65.20
2023-03-07T05:09:48.808Z,65.20
2023-03-07T05:11:22.219Z,65.20
2023-03-07T05:12:56.912Z,65.20
2023-03-07T05:14:30.562Z,65.20
2023-03-07T05:16:04.049Z,65.20
2023-03-07T05:17:38.393Z,65.10
2023-03-07T05:19:13.459Z,65.10
2023-03-07T05:20:48.354Z,65.10
2023-03-07T05:22:21.554Z,65.10
2023-03-07T05:23:55.074Z,65.20
2023-03-07T05:25:28.684Z,65.10
2023-03-07T05:27:02.360Z,65.10
2023-03-07T05:28:35.423Z,65.10
2023-03-07T05:30:11.025Z,65.10
2023-03-07T05:31:44.271Z,65.10
2023-03-07T05:33:17.873Z,65.10
2023-03-07T05:34:50.511Z,65.10
2023-03-07T05:36:28.016Z,65.00
2023-03-07T05:38:00.264Z,65.10
2023-03-07T05:39:33.998Z,65.00
2023-03-07T05:41:07.345Z,64.90
2023-03-07T05:42:40.811Z,64.90
2023-03-07T05:44:13.886Z,64.90
2023-03-07T05:45:46.059Z,64.90
2023-03-07T05:47:19.198Z,64.80
2023-03-07T05:48:52.325Z,64.90
2023-03-07T05:50:25.496Z,64.90
2023-03-07T05:51:59.997Z,64.80
2023-03-07T05:53:33.432Z,64.80
2023-03-07T05:55:07.437Z,64.90
2023-03-07T05:56:40.817Z,64.80
2023-03-07T05:58:14.195Z,64.80
2023-03-07T05:59:46.780Z,64.70
2023-03-07T06:01:19.976Z,64.80
2023-03-07T06:02:53.764Z,64.60
2023-03-07T06:04:27.143Z,64.60
2023-03-07T06:06:00.530Z,64.60
2023-03-07T06:07:35.103Z,64.60
2023-03-07T06:09:08.263Z,64.60
2023-03-07T06:10:42.991Z,64.60
2023-03-07T06:12:16.976Z,64.60
2023-03-07T06:13:50.289Z,64.60
2023-03-07T06:15:24.822Z,64.60
2023-03-07T06:17:07.062Z,64.70
2023-03-07T06:18:41.028Z,64.80
2023-03-07T06:20:15.979Z,64.80
2023-03-07T06:21:49.415Z,64.80
2023-03-07T06:23:24.223Z,64.80
2023-03-07T06:24:57.612Z,64.80
2023-03-07T06:26:31.801Z,64.90
2023-03-07T06:28:05.052Z,64.80
2023-03-07T06:29:38.379Z,64.80
2023-03-07T06:31:14.267Z,64.80
2023-03-07T06:32:47.702Z,64.90
2023-03-07T06:34:21.127Z,64.80
2023-03-07T06:35:54.766Z,64.90
2023-03-07T06:37:28.120Z,64.80
2023-03-07T06:39:05.922Z,64.90
2023-03-07T06:40:41.309Z,64.80
2023-03-07T06:42:17.251Z,64.70
2023-03-07T06:43:52.940Z,64.80
2023-03-07T06:45:31.887Z,65.60
2023-03-07T06:47:05.552Z,64.80
2023-03-07T06:48:38.868Z,64.80
2023-03-07T06:50:16.181Z,64.80
2023-03-07T06:51:51.037Z,64.80
2023-03-07T06:53:24.523Z,64.80
2023-03-07T06:54:59.095Z,65.60
2023-03-07T06:56:34.210Z,64.80
2023-03-07T06:58:07.953Z,64.90
2023-03-07T06:59:41.833Z,64.90
2023-03-07T07:01:19.218Z,65.10
2023-03-07T07:02:55.093Z,65.10
2023-03-07T07:04:28.617Z,65.00
2023-03-07T07:06:03.006Z,65.20
2023-03-07T07:07:37.127Z,65.10
2023-03-07T07:09:14.686Z,65.20
2023-03-07T07:10:49.524Z,65.20
2023-03-07T07:12:22.639Z,65.20
2023-03-07T07:13:56.569Z,65.20
2023-03-07T07:15:30.027Z,65.20
2023-03-07T07:17:03.250Z,65.20
2023-03-07T07:18:36.917Z,65.30
2023-03-07T07:20:13.651Z,65.30
2023-03-07T07:21:47.740Z,65.30
2023-03-07T07:23:21.147Z,65.30
2023-03-07T07:24:55.276Z,65.20
2023-03-07T07:26:29.880Z,65.20
2023-03-07T07:28:05.679Z,65.30
2023-03-07T07:29:39.839Z,65.30
2023-03-07T07:31:14.957Z,65.40
2023-03-07T07:32:48.577Z,65.30
2023-03-07T07:34:21.821Z,65.30
2023-03-07T07:35:55.048Z,65.40
2023-03-07T07:37:28.189Z,65.40
2023-03-07T07:39:05.051Z,65.30
2023-03-07T07:40:39.476Z,65.30
2023-03-07T07:42:14.468Z,65.20
2023-03-07T07:44:00.472Z,65.10
2023-03-07T07:45:40.665Z,65.10
2023-03-07T07:47:17.157Z,65.10
2023-03-07T07:48:50.447Z,65.20
2023-03-07T07:50:25.773Z,65.30
2023-03-07T07:51:59.042Z,65.50
2023-03-07T07:53:32.895Z,65.50
2023-03-07T07:55:07.131Z,65.60
2023-03-07T07:56:40.585Z,65.60
2023-03-07T07:58:15.305Z,65.70
2023-03-07T07:59:48.443Z,65.70
2023-03-07T08:01:24.866Z,65.70
2023-03-07T08:02:59.724Z,65.60
2023-03-07T08:04:33.066Z,65.60
2023-03-07T08:06:06.722Z,65.70
2023-03-07T08:07:39.812Z,65.80
2023-03-07T08:09:14.706Z,65.80
2023-03-07T08:10:48.674Z,65.90
2023-03-07T08:12:21.891Z,66.60
2023-03-07T08:13:56.908Z,65.80
2023-03-07T08:15:30.416Z,65.90
2023-03-07T08:17:03.822Z,65.70
2023-03-07T08:18:37.142Z,65.90
2023-03-07T08:20:12.721Z,65.90
2023-03-07T08:21:46.324Z,65.90
2023-03-07T08:23:19.431Z,66.00
2023-03-07T08:24:52.653Z,66.00
2023-03-07T08:26:25.723Z,66.10
2023-03-07T08:27:58.792Z,66.10
2023-03-07T08:29:35.180Z,66.10
2023-03-07T08:31:10.594Z,66.10
2023-03-07T08:32:43.960Z,66.10
2023-03-07T08:34:17.094Z,65.90
2023-03-07T08:35:50.409Z,66.00
2023-03-07T08:37:23.541Z,66.20
2023-03-07T08:38:56.609Z,66.00
2023-03-07T08:40:30.910Z,66.00
2023-03-07T08:42:04.213Z,66.00
2023-03-07T08:43:39.394Z,65.90
2023-03-07T08:45:15.154Z,65.90
2023-03-07T08:46:48.496Z,66.00
2023-03-07T08:48:21.897Z,66.00
2023-03-07T08:49:54.998Z,66.10
2023-03-07T08:51:28.894Z,66.10
2023-03-07T08:53:02.054Z,66.20
2023-03-07T08:54:35.172Z,66.20
2023-03-07T08:56:09.732Z,66.10
2023-03-07T08:57:43.180Z,66.10
2023-03-07T08:59:16.248Z,66.10
2023-03-07T09:00:51.043Z,66.10
2023-03-07T09:02:24.380Z,66.10
2023-03-07T09:03:57.764Z,66.20
2023-03-07T09:05:31.812Z,66.10
2023-03-07T09:07:05.561Z,66.10
2023-03-07T09:08:38.647Z,66.00
2023-03-07T09:10:12.889Z,65.90
2023-03-07T09:11:45.985Z,65.70
2023-03-07T09:13:19.152Z,65.60
2023-03-07T09:14:55.460Z,65.60
2023-03-07T09:16:30.153Z,65.50
2023-03-07T09:18:03.411Z,65.40
2023-03-07T09:19:36.462Z,65.40
2023-03-07T09:21:09.488Z,65.30
2023-03-07T09:22:42.890Z,65.30
2023-03-07T09:24:16.311Z,65.30
2023-03-07T09:25:49.548Z,65.30
2023-03-07T09:27:22.612Z,65.40
2023-03-07T09:28:55.798Z,65.40
2023-03-07T09:30:28.907Z,65.30
2023-03-07T09:32:05.609Z,65.30
2023-03-07T09:33:39.150Z,65.30
2023-03-07T09:35:12.598Z,65.30
2023-03-07T09:36:45.656Z,65.30
2023-03-07T09:38:18.792Z,65.30
2023-03-07T09:39:51.877Z,65.40
2023-03-07T09:42:06.599Z,65.30
2023-03-07T09:43:48.618Z,65.40
2023-03-07T09:46:09.663Z,65.50
2023-03-07T09:48:35.047Z,65.50
2023-03-07T09:50:19.745Z,65.50
2023-03-07T09:51:58.667Z,65.50
2023-03-07T09:53:40.484Z,65.50
2023-03-07T09:55:18.677Z,65.50
2023-03-07T09:56:57.739Z,66.20
2023-03-07T09:58:31.148Z,65.40
2023-03-07T10:00:18.113Z,65.40
2023-03-07T10:01:59.431Z,65.30
2023-03-07T10:03:42.821Z,65.30
2023-03-07T10:05:33.244Z,65.30
2023-03-07T10:07:09.099Z,65.40
2023-03-07T10:08:42.383Z,65.40
2023-03-07T10:10:20.392Z,65.30
2023-03-07T10:12:18.355Z,65.40
2023-03-07T10:14:13.302Z,65.50
2023-03-07T10:15:49.567Z,65.50
2023-03-07T10:17:46.900Z,65.40
2023-03-07T10:19:36.556Z,65.50
2023-03-07T10:21:24.609Z,65.40
2023-03-07T10:23:13.710Z,65.50
2023-03-07T10:25:14.941Z,65.40
2023-03-07T10:26:56.089Z,65.40
2023-03-07T10:28:34.226Z,65.60
2023-03-07T10:30:17.930Z,65.60
2023-03-07T10:32:00.455Z,65.40
2023-03-07T10:33:35.426Z,65.60
2023-03-07T10:35:21.000Z,65.60
2023-03-07T10:37:08.414Z,65.90
2023-03-07T10:38:56.250Z,65.80
2023-03-07T10:40:37.549Z,65.80
2023-03-07T10:42:13.765Z,65.70
2023-03-07T10:43:48.266Z,65.70
2023-03-07T10:45:22.357Z,65.60
2023-03-07T10:47:00.082Z,65.60
2023-03-07T10:48:34.647Z,65.80
2023-03-07T10:50:28.857Z,65.90
2023-03-07T10:52:07.566Z,66.00
2023-03-07T10:53:41.333Z,65.90
2023-03-07T10:55:41.691Z,65.50
2023-03-07T10:57:17.256Z,65.60
2023-03-07T10:59:03.521Z,65.40
2023-03-07T11:00:36.853Z,65.30
2023-03-07T11:02:32.660Z,65.20
2023-03-07T11:04:08.311Z,65.40
2023-03-07T11:05:49.391Z,65.50
2023-03-07T11:07:29.500Z,65.40
2023-03-07T11:09:15.732Z,65.20
2023-03-07T11:10:48.906Z,65.10
2023-03-07T11:12:23.773Z,64.80
2023-03-07T11:14:08.945Z,64.60
2023-03-07T11:15:42.351Z,64.40
2023-03-07T11:17:22.951Z,64.30
2023-03-07T11:18:58.911Z,64.20
2023-03-07T11:20:51.045Z,64.10
2023-03-07T11:22:33.536Z,64.00
2023-03-07T11:24:27.688Z,64.10
2023-03-07T11:26:17.758Z,63.80
2023-03-07T11:27:55.159Z,63.80
2023-03-07T11:29:29.318Z,63.70
2023-03-07T11:31:16.135Z,63.60
2023-03-07T11:33:03.132Z,63.60
2023-03-07T11:34:44.548Z,63.50
2023-03-07T11:36:27.729Z,63.50
2023-03-07T11:38:13.105Z,63.40
2023-03-07T11:39:59.008Z,63.20
2023-03-07T11:41:36.749Z,63.40
2023-03-07T11:43:22.604Z,63.50
2023-03-07T11:45:04.506Z,63.50
2023-03-07T11:46:56.149Z,63.50
2023-03-07T11:48:52.160Z,63.50
2023-03-07T11:50:31.234Z,63.50
2023-03-07T11:52:24.100Z,63.30
2023-03-07T11:54:13.433Z,63.20
2023-03-07T11:56:00.832Z,63.30
2023-03-07T11:58:02.596Z,63.20
2023-03-07T12:00:26.589Z,63.20
2023-03-07T12:02:03.164Z,63.20
2023-03-07T12:04:18.544Z,63.40
2023-03-07T12:06:19.591Z,63.20
2023-03-07T12:08:19.654Z,63.20
2023-03-07T12:10:02.911Z,63.00
2023-03-07T12:12:01.444Z,62.90
2023-03-07T12:13:54.384Z,63.70
2023-03-07T12:15:40.493Z,62.90
2023-03-07T12:17:31.572Z,63.20
2023-03-07T12:19:42.214Z,63.20
2023-03-07T12:21:34.772Z,63.20
2023-03-07T12:23:20.050Z,63.10
2023-03-07T12:25:19.596Z,63.20
2023-03-07T12:27:01.093Z,63.10
2023-03-07T12:28:45.089Z,63.10
2023-03-07T12:30:25.129Z,63.00
2023-03-07T12:32:04.156Z,62.90
2023-03-07T12:34:02.195Z,62.80
2023-03-07T12:35:46.283Z,62.60
2023-03-07T12:37:26.141Z,62.90
2023-03-07T12:39:12.129Z,63.00
2023-03-07T12:40:52.547Z,63.20
2023-03-07T12:42:38.157Z,63.10
2023-03-07T12:44:28.170Z,63.00
2023-03-07T12:46:13.126Z,63.10
2023-03-07T12:48:05.456Z,63.10
2023-03-07T12:49:49.666Z,63.00
2023-03-07T12:51:30.206Z,63.00
2023-03-07T12:53:12.008Z,62.90
2023-03-07T12:54:58.994Z,63.90
2023-03-07T12:56:45.781Z,63.10
2023-03-07T12:58:27.433Z,63.00
2023-03-07T13:00:09.559Z,63.10
2023-03-07T13:01:49.641Z,63.00
2023-03-07T13:03:38.399Z,62.70
2023-03-07T13:05:21.280Z,62.80
2023-03-07T13:07:00.456Z,62.90
2023-03-07T13:08:34.789Z,62.80
2023-03-07T13:10:18.153Z,62.90
2023-03-07T13:12:32.575Z,62.90
2023-03-07T13:14:06.738Z,62.90
2023-03-07T13:16:05.599Z,63.00
2023-03-07T13:18:02.008Z,63.40
2023-03-07T13:19:53.897Z,63.10
2023-03-07T13:21:34.540Z,62.90
2023-03-07T13:23:29.820Z,62.80
2023-03-07T13:25:51.934Z,62.70
2023-03-07T13:27:28.708Z,62.70
2023-03-07T13:29:01.813Z,62.80
2023-03-07T13:30:34.888Z,62.80
2023-03-07T13:32:57.700Z,63.00
2023-03-07T13:34:48.085Z,63.10
2023-03-07T13:36:37.843Z,63.20
2023-03-07T13:38:32.692Z,63.00
2023-03-07T13:40:48.291Z,62.90
2023-03-07T13:42:47.601Z,62.90
2023-03-07T13:44:37.519Z,62.90
2023-03-07T13:46:51.579Z,62.80
2023-03-07T13:49:03.803Z,62.80
2023-03-07T13:51:00.742Z,62.80
2023-03-07T13:52:45.935Z,62.60
2023-03-07T13:54:21.677Z,62.70
2023-03-07T13:56:03.078Z,62.50
2023-03-07T13:57:41.660Z,62.50
2023-03-07T13:59:28.354Z,62.30
2023-03-07T14:01:06.078Z,62.30
2023-03-07T14:02:44.002Z,62.20
2023-03-07T14:04:37.004Z,62.30
2023-03-07T14:06:21.114Z,62.20
2023-03-07T14:07:54.869Z,62.20
2023-03-07T14:09:40.497Z,62.10
2023-03-07T14:11:23.774Z,62.20
2023-03-07T14:13:19.969Z,62.10
2023-03-07T14:15:14.147Z,62.10
2023-03-07T14:17:06.256Z,62.10
2023-03-07T14:18:58.924Z,62.10
2023-03-07T14:20:52.835Z,62.10
2023-03-07T14:22:43.234Z,62.10
2023-03-07T14:24:51.469Z,62.20
2023-03-07T14:26:33.470Z,62.10
2023-03-07T14:28:22.409Z,62.10
2023-03-07T14:29:58.236Z,62.20
2023-03-07T14:31:38.369Z,62.30
2023-03-07T14:33:18.902Z,62.60
2023-03-07T14:34:53.123Z,62.80
2023-03-07T14:36:31.191Z,62.80
2023-03-07T14:38:09.219Z,62.70
2023-03-07T14:39:55.514Z,62.80
2023-03-07T14:41:46.409Z,62.90
2023-03-07T14:43:37.650Z,62.90
2023-03-07T14:45:41.924Z,62.90
2023-03-07T14:47:36.150Z,63.00
2023-03-07T14:49:24.654Z,62.90
2023-03-07T14:51:13.838Z,62.90
2023-03-07T14:52:49.664Z,62.90
2023-03-07T14:54:29.492Z,62.80
2023-03-07T14:56:08.384Z,62.80
2023-03-07T14:57:45.995Z,62.70
2023-03-07T14:59:28.128Z,62.60
2023-03-07T15:01:07.107Z,62.50
2023-03-07T15:02:48.506Z,62.50
2023-03-07T15:04:27.874Z,62.50
2023-03-07T15:06:03.769Z,62.40
2023-03-07T15:07:38.346Z,62.40
2023-03-07T15:09:12.401Z,62.30
2023-03-07T15:10:50.541Z,62.20
2023-03-07T15:12:27.607Z,62.20
2023-03-07T15:14:05.383Z,62.20
2023-03-07T15:15:43.715Z,62.20
2023-03-07T15:17:21.770Z,62.20
2023-03-07T15:18:59.551Z,62.20
2023-03-07T15:20:34.409Z,62.30
2023-03-07T15:22:18.505Z,62.50
2023-03-07T15:23:54.539Z,62.30
2023-03-07T15:25:27.889Z,62.30
2023-03-07T15:27:02.445Z,62.30
2023-03-07T15:28:40.108Z,62.50
2023-03-07T15:30:26.654Z,62.60
2023-03-07T15:32:02.612Z,62.70
2023-03-07T15:33:37.606Z,62.70
2023-03-07T15:35:19.229Z,62.70
2023-03-07T15:36:52.734Z,62.60
2023-03-07T15:38:26.245Z,62.50
2023-03-07T15:40:02.065Z,62.40
2023-03-07T15:41:38.041Z,62.50
2023-03-07T15:43:26.463Z,62.50
2023-03-07T15:45:02.495Z,62.40
2023-03-07T15:46:38.388Z,62.30
2023-03-07T15:48:25.071Z,62.40
2023-03-07T15:50:04.404Z,62.30
2023-03-07T15:51:38.988Z,62.10
2023-03-07T15:53:27.646Z,62.10
2023-03-07T15:55:05.415Z,62.00
2023-03-07T15:56:40.515Z,62.00
2023-03-07T15:58:15.243Z,62.00
2023-03-07T15:59:52.637Z,62.10
2023-03-07T16:01:28.722Z,62.10
2023-03-07T16:03:26.401Z,62.10
2023-03-07T16:05:01.808Z,62.10
2023-03-07T16:06:42.507Z,62.10
2023-03-07T16:08:18.037Z,62.30
2023-03-07T16:09:51.339Z,62.50
2023-03-07T16:11:26.385Z,62.30
2023-03-07T16:13:12.575Z,62.50
2023-03-07T16:14:54.742Z,62.30
2023-03-07T16:16:31.229Z,62.30
2023-03-07T16:18:06.765Z,62.40
2023-03-07T16:19:40.116Z,62.40
2023-03-07T16:21:16.449Z,62.30
2023-03-07T16:22:49.859Z,62.30
2023-03-07T16:24:23.212Z,62.40
2023-03-07T16:25:58.543Z,62.30
2023-03-07T16:27:31.705Z,62.50
2023-03-07T16:29:05.585Z,62.50
2023-03-07T16:30:39.985Z,62.50
2023-03-07T16:32:16.225Z,62.50
2023-03-07T16:33:49.842Z,62.60
2023-03-07T16:35:25.405Z,62.70
2023-03-07T16:36:59.957Z,62.50
2023-03-07T16:38:33.104Z,62.20
2023-03-07T16:40:08.282Z,62.20
2023-03-07T16:41:46.845Z,62.30
2023-03-07T16:43:35.759Z,62.50
2023-03-07T16:45:19.801Z,62.60
2023-03-07T16:46:58.342Z,62.60
2023-03-07T16:48:31.573Z,62.80
2023-03-07T16:50:05.170Z,62.80
2023-03-07T16:51:38.300Z,62.80
2023-03-07T16:53:12.968Z,62.80
2023-03-07T16:54:46.080Z,62.80
2023-03-07T16:56:25.777Z,62.90
2023-03-07T16:58:04.317Z,62.90
2023-03-07T16:59:39.267Z,62.90
2023-03-07T17:01:15.109Z,62.80
2023-03-07T17:02:51.965Z,62.80
2023-03-07T17:04:25.101Z,62.90
2023-03-07T17:05:59.011Z,62.80
2023-03-07T17:07:32.137Z,62.80
2023-03-07T17:09:09.213Z,62.90
2023-03-07T17:10:44.870Z,63.00
2023-03-07T17:12:23.482Z,62.90
2023-03-07T17:14:01.378Z,62.80
2023-03-07T17:15:36.285Z,62.80
2023-03-07T17:17:17.635Z,62.70
2023-03-07T17:18:50.721Z,62.90
2023-03-07T17:20:24.445Z,62.90
2023-03-07T17:22:00.070Z,62.90
2023-03-07T17:23:33.366Z,62.90
2023-03-07T17:25:09.532Z,62.90
2023-03-07T17:26:46.016Z,63.00
2023-03-07T17:28:20.407Z,63.10
2023-03-07T17:29:55.435Z,62.90
2023-03-07T17:31:28.800Z,62.90
2023-03-07T17:33:02.164Z,62.80
2023-03-07T17:34:37.801Z,62.90
2023-03-07T17:36:12.426Z,63.10
2023-03-07T17:37:46.252Z,63.10
2023-03-07T17:39:20.391Z,63.10
2023-03-07T17:40:56.666Z,63.90
2023-03-07T17:42:29.812Z,63.10
2023-03-07T17:44:02.878Z,63.10
2023-03-07T17:45:36.238Z,63.10
2023-03-07T17:47:09.362Z,63.10
2023-03-07T17:48:42.554Z,63.10
2023-03-07T17:50:16.004Z,63.10
2023-03-07T17:51:49.573Z,63.10
2023-03-07T17:53:22.650Z,63.20
2023-03-07T17:54:55.786Z,63.20
2023-03-07T17:56:30.479Z,63.30
2023-03-07T17:58:04.267Z,63.40
2023-03-07T17:59:37.904Z,63.40
2023-03-07T18:01:14.937Z,63.50
2023-03-07T18:02:48.096Z,63.40
2023-03-07T18:04:21.248Z,63.40
2023-03-07T18:05:54.393Z,63.50
2023-03-07T18:07:27.568Z,63.30
2023-03-07T18:09:01.162Z,63.40
2023-03-07T18:10:34.415Z,63.40
2023-03-07T18:12:10.273Z,63.40
2023-03-07T18:13:43.563Z,63.50
2023-03-07T18:15:19.728Z,63.30
2023-03-07T18:16:53.487Z,63.40
2023-03-07T18:18:27.114Z,63.50
2023-03-07T18:20:00.731Z,63.50
2023-03-07T18:21:33.912Z,63.60
2023-03-07T18:23:07.445Z,63.60
2023-03-07T18:24:40.576Z,63.70
2023-03-07T18:26:15.741Z,63.70
2023-03-07T18:27:50.367Z,64.40
2023-03-07T18:29:24.741Z,63.60
2023-03-07T18:30:59.461Z,63.60
2023-03-07T18:32:34.055Z,63.60
2023-03-07T18:34:07.452Z,63.60
2023-03-07T18:35:40.916Z,63.70
2023-03-07T18:37:15.470Z,63.80
2023-03-07T18:38:49.908Z,63.80
2023-03-07T18:40:26.422Z,63.90
2023-03-07T18:42:04.985Z,63.90
2023-03-07T18:43:42.830Z,63.80
2023-03-07T18:45:16.635Z,63.80
2023-03-07T18:46:53.294Z,63.90
2023-03-07T18:48:26.681Z,64.00
2023-03-07T18:49:59.902Z,63.90
2023-03-07T18:51:35.922Z,63.90
2023-03-07T18:53:10.208Z,63.90
2023-03-07T18:54:43.636Z,63.90
2023-03-07T18:56:20.483Z,64.00
2023-03-07T18:57:53.721Z,64.00
2023-03-07T18:59:28.243Z,63.80
2023-03-07T19:01:11.925Z,63.80
2023-03-07T19:02:45.330Z,63.90
2023-03-07T19:04:21.119Z,63.90
2023-03-07T19:05:54.266Z,63.80
2023-03-07T19:07:28.718Z,63.90
2023-03-07T19:09:03.487Z,64.40
2023-03-07T19:10:37.101Z,63.80
2023-03-07T19:12:10.311Z,63.60
2023-03-07T19:13:44.568Z,63.70
2023-03-07T19:15:19.388Z,63.80
2023-03-07T19:16:52.669Z,63.60
2023-03-07T19:18:25.936Z,63.60
2023-03-07T19:20:00.305Z,63.70
2023-03-07T19:21:33.735Z,63.70
2023-03-07T19:23:06.935Z,63.80
2023-03-07T19:24:40.008Z,63.80
2023-03-07T19:26:18.041Z,63.80
2023-03-07T19:27:51.418Z,63.90
2023-03-07T19:29:24.611Z,63.70
2023-03-07T19:30:59.495Z,64.60
2023-03-07T19:32:33.237Z,63.90
2023-03-07T19:34:06.591Z,63.90
2023-03-07T19:35:39.828Z,63.90
2023-03-07T19:37:13.146Z,63.80
2023-03-07T19:38:48.709Z,63.80
2023-03-07T19:40:23.019Z,63.90
2023-03-07T19:41:58.811Z,63.90
2023-03-07T19:43:32.358Z,63.70
2023-03-07T19:45:06.710Z,63.70
2023-03-07T19:46:45.875Z,63.90
2023-03-07T19:48:19.257Z,63.80
2023-03-07T19:49:54.692Z,63.70
2023-03-07T19:51:28.183Z,63.80
2023-03-07T19:53:02.860Z,63.70
2023-03-07T19:54:36.908Z,63.80
2023-03-07T19:56:11.638Z,63.80
2023-03-07T19:57:49.165Z,63.80
2023-03-07T19:59:23.501Z,63.70
2023-03-07T20:00:58.772Z,63.70
2023-03-07T20:02:37.875Z,63.80
2023-03-07T20:04:16.041Z,63.70
2023-03-07T20:05:50.307Z,63.80
2023-03-07T20:07:23.674Z,63.80
2023-03-07T20:08:57.983Z,63.90
2023-03-07T20:10:31.301Z,63.90
2023-03-07T20:12:07.903Z,63.70
2023-03-07T20:13:43.046Z,63.80
2023-03-07T20:15:16.771Z,63.70
2023-03-07T20:16:50.108Z,63.70
2023-03-07T20:18:25.033Z,63.50
2023-03-07T20:19:58.600Z,63.40
2023-03-07T20:21:33.984Z,63.20
2023-03-07T20:23:07.074Z,63.40
2023-03-07T20:24:40.402Z,63.10
2023-03-07T20:26:16.929Z,63.20
2023-03-07T20:27:50.264Z,63.20
2023-03-07T20:29:24.493Z,63.20
2023-03-07T20:30:58.074Z,63.20
2023-03-07T20:32:31.629Z,63.30
2023-03-07T20:34:07.243Z,63.30
2023-03-07T20:35:40.554Z,63.30
2023-03-07T20:37:13.740Z,63.30
2023-03-07T20:38:50.528Z,63.30
2023-03-07T20:40:24.008Z,63.40
2023-03-07T20:41:57.178Z,63.40
2023-03-07T20:43:31.217Z,63.40
2023-03-07T20:45:05.285Z,63.40
2023-03-07T20:46:39.930Z,63.40
2023-03-07T20:48:13.556Z,63.40
2023-03-07T20:49:48.131Z,63.30
2023-03-07T20:51:27.037Z,63.20
2023-03-07T20:53:02.135Z,63.50
2023-03-07T20:54:38.484Z,63.20
2023-03-07T20:56:13.320Z,62.80
2023-03-07T20:57:46.830Z,63.00
2023-03-07T20:59:20.968Z,62.90